Time;durP1;ratioP1;P1;durP2;ratioP2;P2;SDS_P1;SDS_P2;PMS_P1;PMS_P2;Temp;Humidity;BMP_temperature;BMP_pressure;BME280_temperature;BME280_humidity;BME280_pressure;Samples;Min_cycle;Max_cycle;Signal;HPM_P1;HPM_P2
2022/02/23 00:01:11;;;;;;;7.50;7.10;;;7.50;99.90;;;;;;4965530;28;20756;-75
2022/02/23 00:03:38;;;;;;;8.90;8.20;;;7.50;99.90;;;;;;4967167;28;20201;-77
2022/02/23 00:06:04;;;;;;;4.27;2.30;;;7.50;99.90;;;;;;4983475;28;20247;-77
2022/02/23 00:08:31;;;;;;;3.17;2.20;;;7.50;99.90;;;;;;4966569;28;20205;-76
2022/02/23 00:10:59;;;;;;;5.13;2.67;;;7.50;99.90;;;;;;4984294;28;20760;-77
2022/02/23 00:13:26;;;;;;;4.07;2.30;;;7.50;99.90;;;;;;4983471;28;20204;-77
2022/02/23 00:15:55;;;;;;;2.10;1.90;;;7.60;99.90;;;;;;4984204;28;20199;-77
2022/02/23 00:18:22;;;;;;;3.53;2.23;;;7.60;99.90;;;;;;4966317;28;20592;-79
2022/02/23 00:20:50;;;;;;;3.13;2.30;;;7.60;99.90;;;;;;4984557;28;20201;-76
2022/02/23 00:23:18;;;;;;;3.20;2.27;;;7.70;99.90;;;;;;4982183;28;20204;-76
2022/02/23 00:25:45;;;;;;;4.03;2.20;;;7.70;99.90;;;;;;4985114;28;20193;-77
2022/02/23 00:28:12;;;;;;;5.17;2.20;;;7.70;99.90;;;;;;4982256;28;20637;-77
2022/02/23 00:30:39;;;;;;;3.53;2.20;;;7.70;99.90;;;;;;4957084;28;20232;-76
2022/02/23 00:33:07;;;;;;;3.03;2.13;;;7.70;99.90;;;;;;4965249;28;20224;-79
2022/02/23 00:35:34;;;;;;;2.93;2.27;;;7.80;99.90;;;;;;4986732;28;20197;-76
2022/02/23 00:38:01;;;;;;;2.93;2.10;;;7.80;99.90;;;;;;4984100;28;20208;-76
2022/02/23 00:40:28;;;;;;;2.60;2.37;;;7.80;99.90;;;;;;4961353;28;20594;-77
2022/02/23 00:42:57;;;;;;;3.33;2.00;;;7.80;99.90;;;;;;4985874;28;20230;-76
2022/02/23 00:45:24;;;;;;;5.33;4.73;;;7.80;99.90;;;;;;4963766;28;20675;-76
2022/02/23 00:47:51;;;;;;;2.53;2.33;;;7.80;99.90;;;;;;4985852;28;20208;-76
2022/02/23 00:50:19;;;;;;;2.83;2.33;;;7.80;99.90;;;;;;4964683;28;20259;-77
2022/02/23 00:52:46;;;;;;;2.80;2.33;;;7.80;99.90;;;;;;4968830;28;20319;-77
2022/02/23 00:55:13;;;;;;;3.83;2.20;;;7.80;99.90;;;;;;4982107;28;20211;-77
2022/02/23 00:57:40;;;;;;;3.33;2.30;;;7.80;99.90;;;;;;4980303;28;20201;-75
2022/02/23 01:00:08;;;;;;;4.20;2.80;;;7.80;99.90;;;;;;4988356;28;20252;-76
2022/02/23 01:02:35;;;;;;;4.47;2.80;;;7.80;99.90;;;;;;4983918;28;20228;-76
2022/02/23 01:05:02;;;;;;;2.57;2.30;;;7.90;99.90;;;;;;4991646;28;20205;-77
2022/02/23 01:07:30;;;;;;;2.63;2.37;;;7.90;99.90;;;;;;4978628;28;20280;-76
2022/02/23 01:09:57;;;;;;;2.30;2.10;;;7.90;99.90;;;;;;4965781;28;20206;-77
2022/02/23 01:12:24;;;;;;;3.93;2.90;;;7.90;99.90;;;;;;4980897;28;20246;-76
2022/02/23 01:14:50;;;;;;;4.23;3.87;;;7.90;99.90;;;;;;4983916;28;20692;-76
2022/02/23 01:17:17;;;;;;;4.67;3.17;;;7.90;99.90;;;;;;4979683;28;20201;-76
2022/02/23 01:19:44;;;;;;;4.60;2.20;;;7.90;99.90;;;;;;4989631;28;20608;-77
2022/02/23 01:22:11;;;;;;;2.50;2.30;;;7.90;99.90;;;;;;4970465;28;20625;-77
2022/02/23 01:24:39;;;;;;;3.90;2.70;;;7.90;99.90;;;;;;4987128;28;20207;-75
2022/02/23 01:27:06;;;;;;;3.40;3.07;;;7.90;99.90;;;;;;4985016;28;20209;-77
2022/02/23 01:29:33;;;;;;;3.70;2.80;;;7.90;99.90;;;;;;4987309;28;20197;-77
2022/02/23 01:32:00;;;;;;;4.13;2.90;;;7.80;99.90;;;;;;4968794;28;20239;-76
2022/02/23 01:34:26;;;;;;;3.20;2.90;;;7.90;99.90;;;;;;4986743;28;20206;-76
2022/02/23 01:36:53;;;;;;;3.83;2.73;;;7.90;99.90;;;;;;4970156;28;20213;-77
2022/02/23 01:39:20;;;;;;;3.87;3.50;;;7.90;99.90;;;;;;4968280;28;20260;-77
2022/02/23 01:41:48;;;;;;;3.23;2.30;;;7.90;99.90;;;;;;4969288;28;20712;-76
2022/02/23 01:44:15;;;;;;;4.20;2.53;;;7.80;99.90;;;;;;4984945;28;20264;-77
2022/02/23 01:46:42;;;;;;;2.30;2.10;;;7.80;99.90;;;;;;4986484;28;20252;-77
2022/02/23 01:49:09;;;;;;;2.50;2.30;;;7.90;99.90;;;;;;4968588;28;20216;-76
2022/02/23 01:51:36;;;;;;;2.30;2.20;;;7.90;99.90;;;;;;4969447;28;20232;-76
2022/02/23 01:54:03;;;;;;;5.00;2.40;;;7.80;99.90;;;;;;4983734;28;20211;-77
2022/02/23 01:56:30;;;;;;;3.77;2.20;;;7.80;99.90;;;;;;4968670;28;20264;-77
2022/02/23 01:58:58;;;;;;;2.00;1.90;;;7.90;99.90;;;;;;4985956;28;20204;-76
2022/02/23 02:01:25;;;;;;;3.53;2.47;;;7.80;99.90;;;;;;4968760;28;20216;-78
2022/02/23 02:03:51;;;;;;;2.93;2.20;;;7.80;99.90;;;;;;4966040;28;20232;-77
2022/02/23 02:06:18;;;;;;;3.13;2.53;;;7.80;99.90;;;;;;4985238;28;20200;-77
2022/02/23 02:08:45;;;;;;;3.47;2.27;;;7.80;99.90;;;;;;4983448;28;20202;-76
2022/02/23 02:11:12;;;;;;;4.10;3.80;;;7.80;99.90;;;;;;4984608;28;20239;-77
2022/02/23 02:13:39;;;;;;;3.90;3.00;;;7.80;99.90;;;;;;4977624;28;20204;-76
2022/02/23 02:16:07;;;;;;;2.93;2.27;;;7.80;99.90;;;;;;4966155;28;20206;-77
2022/02/23 02:18:34;;;;;;;2.37;2.17;;;7.80;99.90;;;;;;4975130;28;20199;-76
2022/02/23 02:21:01;;;;;;;3.00;2.80;;;7.80;99.90;;;;;;4982575;28;20609;-77
2022/02/23 02:23:29;;;;;;;7.67;5.93;;;7.80;99.90;;;;;;4978795;28;20256;-78
2022/02/23 02:25:56;;;;;;;6.70;6.10;;;7.80;99.90;;;;;;4981116;28;20200;-76
2022/02/23 02:28:23;;;;;;;2.43;2.23;;;7.80;99.90;;;;;;4980365;28;20683;-77
2022/02/23 02:30:49;;;;;;;3.07;2.50;;;7.80;99.90;;;;;;4982078;28;20216;-76
2022/02/23 02:33:16;;;;;;;2.60;2.40;;;7.80;99.90;;;;;;4967353;28;20232;-76
2022/02/23 02:35:43;;;;;;;2.80;2.50;;;7.80;99.90;;;;;;4982992;28;20209;-78
2022/02/23 02:38:10;;;;;;;3.40;3.10;;;7.80;99.90;;;;;;4982971;28;20193;-76
2022/02/23 02:40:38;;;;;;;6.37;5.77;;;7.80;99.90;;;;;;4958542;28;20201;-77
2022/02/23 02:43:07;;;;;;;4.97;3.40;;;7.80;99.90;;;;;;4982571;28;20222;-77
2022/02/23 02:45:34;;;;;;;4.53;3.17;;;7.80;99.90;;;;;;4985581;28;20205;-76
2022/02/23 02:48:01;;;;;;;2.93;2.67;;;7.80;99.90;;;;;;4964056;28;20260;-77
2022/02/23 02:50:29;;;;;;;5.00;4.50;;;7.50;99.90;;;;;;4985688;28;20558;-77
2022/02/23 02:52:55;;;;;;;5.60;5.00;;;7.20;99.90;;;;;;4966323;28;20618;-77
2022/02/23 02:55:22;;;;;;;5.90;5.40;;;6.80;99.90;;;;;;4986662;28;20225;-77
2022/02/23 02:57:51;;;;;;;5.83;5.47;;;6.50;99.90;;;;;;4986622;28;20228;-75
2022/02/23 03:00:18;;;;;;;7.17;5.70;;;6.40;99.90;;;;;;4987917;28;20226;-77
2022/02/23 03:02:45;;;;;;;7.03;6.30;;;6.20;99.90;;;;;;4959840;28;20219;-77
2022/02/23 03:05:11;;;;;;;7.07;5.77;;;6.10;99.90;;;;;;4971471;28;20208;-75
2022/02/23 03:07:38;;;;;;;8.90;7.07;;;6.00;99.90;;;;;;4982353;28;20206;-79
2022/02/23 03:10:06;;;;;;;7.60;6.90;;;5.90;99.90;;;;;;4977661;28;20198;-76
2022/02/23 03:12:33;;;;;;;6.10;5.53;;;5.90;99.90;;;;;;4985016;28;20213;-78
2022/02/23 03:15:01;;;;;;;6.20;5.60;;;5.80;99.90;;;;;;4982011;28;20647;-79
2022/02/23 03:17:28;;;;;;;5.93;5.53;;;5.80;99.90;;;;;;4991756;28;20205;-75
2022/02/23 03:19:55;;;;;;;7.83;7.03;;;5.70;99.90;;;;;;4981570;28;20246;-74
2022/02/23 03:22:22;;;;;;;9.83;8.83;;;5.60;99.90;;;;;;4981859;28;20296;-77
2022/02/23 03:24:49;;;;;;;10.20;9.30;;;5.60;99.90;;;;;;4973997;28;20202;-80
2022/02/23 03:27:15;;;;;;;9.80;9.10;;;5.60;99.90;;;;;;4979670;28;20202;-77
2022/02/23 03:29:42;;;;;;;9.60;8.80;;;5.60;99.90;;;;;;4982415;28;20189;-78
2022/02/23 03:32:10;;;;;;;9.93;9.23;;;5.50;99.90;;;;;;4978172;28;20230;-78
2022/02/23 03:34:37;;;;;;;9.37;8.70;;;5.60;99.90;;;;;;4963038;28;20225;-78
2022/02/23 03:37:05;;;;;;;9.40;8.60;;;5.60;99.90;;;;;;4972635;28;20209;-78
2022/02/23 03:39:32;;;;;;;10.83;10.03;;;5.60;99.90;;;;;;4956674;28;20213;-78
2022/02/23 03:41:58;;;;;;;9.73;9.03;;;5.60;99.90;;;;;;4975679;28;20221;-78
2022/02/23 03:44:25;;;;;;;10.17;9.33;;;5.60;99.90;;;;;;4985065;28;20194;-77
2022/02/23 03:46:52;;;;;;;10.10;9.30;;;5.50;99.90;;;;;;4995169;28;20208;-78
2022/02/23 03:49:20;;;;;;;12.27;11.13;;;5.50;99.90;;;;;;4985067;28;20205;-77
2022/02/23 03:51:47;;;;;;;9.80;9.07;;;5.60;99.90;;;;;;4989016;28;20228;-78
2022/02/23 03:54:14;;;;;;;9.97;9.13;;;5.60;99.90;;;;;;4965525;28;20206;-78
2022/02/23 03:56:42;;;;;;;9.83;9.13;;;5.60;99.90;;;;;;4973547;28;20224;-78
2022/02/23 03:59:12;;;;;;;10.40;9.70;;;5.60;99.90;;;;;;4967139;28;20225;-77
2022/02/23 04:01:41;;;;;;;11.60;10.60;;;5.60;99.90;;;;;;4981115;28;20698;-78
2022/02/23 04:04:09;;;;;;;10.80;9.90;;;5.60;99.90;;;;;;4977348;28;20551;-78
2022/02/23 04:06:38;;;;;;;13.50;11.13;;;5.60;99.90;;;;;;4986663;28;20209;-81
2022/02/23 04:09:06;;;;;;;12.17;11.00;;;5.60;99.90;;;;;;4975389;28;20249;-79
2022/02/23 04:11:33;;;;;;;13.83;11.80;;;5.60;99.90;;;;;;4969736;28;20320;-77
2022/02/23 04:14:00;;;;;;;14.67;11.30;;;5.60;99.90;;;;;;4962886;28;20224;-77
2022/02/23 04:16:28;;;;;;;11.43;10.33;;;5.60;99.90;;;;;;4990362;28;20225;-77
2022/02/23 04:18:54;;;;;;;11.60;10.50;;;5.60;99.90;;;;;;4987543;28;20201;-78
2022/02/23 04:21:22;;;;;;;14.07;11.30;;;5.70;99.90;;;;;;4966498;28;20222;-78
2022/02/23 04:23:50;;;;;;;12.00;10.80;;;5.60;99.90;;;;;;4970087;28;20922;-75
2022/02/23 04:26:18;;;;;;;10.43;9.67;;;5.70;99.90;;;;;;4977228;28;20206;-76
2022/02/23 04:28:46;;;;;;;11.40;10.40;;;5.70;99.90;;;;;;4980419;28;20200;-74
2022/02/23 04:31:13;;;;;;;13.80;11.63;;;5.60;99.90;;;;;;4978604;28;20222;-75
2022/02/23 04:33:40;;;;;;;15.90;13.07;;;5.60;99.90;;;;;;4963665;28;20212;-75
2022/02/23 04:36:09;;;;;;;13.00;11.20;;;5.60;99.90;;;;;;4958719;28;20206;-77
2022/02/23 04:38:38;;;;;;;12.87;10.43;;;5.60;99.90;;;;;;4988888;28;20217;-77
2022/02/23 04:41:07;;;;;;;11.03;10.13;;;5.50;99.90;;;;;;4979220;28;20770;-75
2022/02/23 04:43:35;;;;;;;10.93;10.03;;;5.50;99.90;;;;;;4983622;28;20198;-75
2022/02/23 04:46:03;;;;;;;11.07;10.13;;;5.60;99.90;;;;;;4987341;28;20206;-76
2022/02/23 04:48:30;;;;;;;10.63;9.73;;;5.60;99.90;;;;;;4983199;28;20186;-74
2022/02/23 04:50:57;;;;;;;12.93;10.80;;;5.60;99.90;;;;;;4966196;28;20205;-76
2022/02/23 04:53:24;;;;;;;13.57;11.60;;;5.50;99.90;;;;;;4986954;28;20558;-76
2022/02/23 04:55:51;;;;;;;12.10;11.10;;;5.50;99.90;;;;;;4984835;28;20754;-77
2022/02/23 04:58:19;;;;;;;12.13;11.13;;;5.50;99.90;;;;;;4966553;28;20300;-77
2022/02/23 05:00:47;;;;;;;13.73;11.70;;;5.50;99.90;;;;;;4986961;28;20194;-77
2022/02/23 05:03:14;;;;;;;11.80;10.60;;;5.50;99.90;;;;;;4981187;28;20193;-77
2022/02/23 05:05:41;;;;;;;13.57;11.13;;;5.50;99.90;;;;;;4966325;28;20401;-75
2022/02/23 05:08:08;;;;;;;11.90;10.63;;;5.50;99.90;;;;;;4966670;28;20246;-75
2022/02/23 05:10:35;;;;;;;11.13;10.33;;;5.60;99.90;;;;;;4986863;28;20217;-75
2022/02/23 05:13:02;;;;;;;11.43;10.33;;;5.60;99.90;;;;;;5026681;23;20239;-78
2022/02/23 05:15:30;;;;;;;11.57;10.50;;;5.60;99.90;;;;;;4999057;28;20194;-75
2022/02/23 05:17:57;;;;;;;11.13;10.30;;;5.50;99.90;;;;;;5002145;28;20197;-76
2022/02/23 05:20:24;;;;;;;10.77;10.00;;;5.40;99.90;;;;;;4988100;28;20196;-77
2022/02/23 05:22:51;;;;;;;11.03;10.07;;;5.40;99.90;;;;;;4984581;28;20312;-77
2022/02/23 05:25:18;;;;;;;11.20;10.37;;;5.30;99.90;;;;;;5001743;28;20205;-76
2022/02/23 05:27:45;;;;;;;11.77;10.97;;;5.30;99.90;;;;;;4984225;28;20228;-75
2022/02/23 05:30:12;;;;;;;12.20;11.37;;;5.20;99.90;;;;;;5003516;28;20205;-76
2022/02/23 05:32:42;;;;;;;12.13;11.20;;;5.20;99.90;;;;;;4988444;28;20251;-76
2022/02/23 05:35:10;;;;;;;12.10;11.30;;;5.10;99.90;;;;;;4988243;28;20201;-77
2022/02/23 05:37:37;;;;;;;12.63;11.50;;;5.00;99.90;;;;;;4986313;28;20674;-77
2022/02/23 05:40:05;;;;;;;12.10;11.00;;;5.00;99.90;;;;;;4983677;28;20204;-77
2022/02/23 05:42:32;;;;;;;12.03;11.10;;;5.00;99.90;;;;;;5004588;28;20223;-78
2022/02/23 05:45:02;;;;;;;13.63;12.37;;;4.90;99.90;;;;;;4987129;28;20205;-76
2022/02/23 05:47:30;;;;;;;13.23;12.20;;;4.80;99.90;;;;;;5001717;28;20200;-76
2022/02/23 05:49:58;;;;;;;13.07;12.13;;;4.70;99.90;;;;;;5002492;28;20252;-77
2022/02/23 05:52:25;;;;;;;13.40;12.40;;;4.70;99.90;;;;;;5012462;28;20267;-76
2022/02/23 05:54:52;;;;;;;13.20;12.20;;;4.60;99.90;;;;;;4991369;28;20637;-76
2022/02/23 05:57:19;;;;;;;12.73;11.90;;;4.60;99.90;;;;;;4997376;28;20283;-76
2022/02/23 05:59:46;;;;;;;13.10;12.20;;;4.50;99.90;;;;;;5006950;28;20666;-76
2022/02/23 06:02:13;;;;;;;13.43;12.43;;;4.50;99.90;;;;;;5003187;28;20638;-76
2022/02/23 06:04:40;;;;;;;14.30;13.20;;;4.40;99.90;;;;;;4989229;28;20197;-76
2022/02/23 06:07:08;;;;;;;13.63;12.57;;;4.40;99.90;;;;;;5005253;28;20197;-76
2022/02/23 06:09:35;;;;;;;13.37;12.33;;;4.40;99.90;;;;;;5011408;28;20613;-76
2022/02/23 06:12:03;;;;;;;13.50;12.60;;;4.40;99.90;;;;;;4984603;28;20296;-77
2022/02/23 06:14:31;;;;;;;13.87;13.00;;;4.40;99.90;;;;;;4987499;28;20673;-76
2022/02/23 06:16:58;;;;;;;14.20;13.13;;;4.40;99.90;;;;;;4988814;28;20214;-76
2022/02/23 06:19:25;;;;;;;14.63;13.63;;;4.40;99.90;;;;;;5000241;28;20196;-76
2022/02/23 06:21:52;;;;;;;14.97;13.50;;;4.30;99.90;;;;;;5003308;28;20212;-78
2022/02/23 06:24:20;;;;;;;14.20;13.00;;;4.30;99.90;;;;;;5008003;28;20197;-76
2022/02/23 06:26:48;;;;;;;13.60;12.50;;;4.30;99.90;;;;;;5001333;28;20571;-76
2022/02/23 06:29:15;;;;;;;13.80;12.70;;;4.30;99.90;;;;;;4984485;28;20193;-76
2022/02/23 06:31:44;;;;;;;14.67;13.57;;;4.30;99.90;;;;;;5002117;28;20251;-77
2022/02/23 06:34:12;;;;;;;13.80;12.77;;;4.30;99.90;;;;;;5003659;28;20271;-77
2022/02/23 06:36:39;;;;;;;13.80;12.70;;;4.30;99.90;;;;;;4988331;28;20205;-77
2022/02/23 06:39:06;;;;;;;14.37;12.97;;;4.30;99.90;;;;;;5005512;28;20197;-76
2022/02/23 06:41:34;;;;;;;14.50;13.30;;;4.30;99.90;;;;;;5003336;28;20208;-77
2022/02/23 06:44:01;;;;;;;13.60;12.47;;;4.30;99.90;;;;;;4978444;28;20220;-76
2022/02/23 06:46:28;;;;;;;13.97;12.70;;;4.30;99.90;;;;;;4989698;28;20249;-76
2022/02/23 06:48:55;;;;;;;13.10;12.00;;;4.40;99.90;;;;;;5002966;28;20596;-76
2022/02/23 06:51:22;;;;;;;14.00;12.93;;;4.40;99.90;;;;;;5002356;28;20287;-78
2022/02/23 06:53:50;;;;;;;13.30;12.07;;;4.40;99.90;;;;;;4990127;28;20749;-77
2022/02/23 06:56:18;;;;;;;13.47;12.50;;;4.50;99.90;;;;;;4999441;28;20216;-76
2022/02/23 06:58:49;;;;;;;13.83;12.60;;;4.50;99.90;;;;;;4987884;28;20208;-77
2022/02/23 07:01:18;;;;;;;13.67;12.47;;;4.50;99.90;;;;;;5001388;28;20193;-76
2022/02/23 07:03:46;;;;;;;14.60;13.30;;;4.70;99.90;;;;;;4992343;28;20247;-77
2022/02/23 07:06:13;;;;;;;13.90;12.77;;;5.00;99.90;;;;;;5001744;28;20215;-77
2022/02/23 07:08:43;;;;;;;14.07;12.80;;;5.20;99.90;;;;;;4980542;28;20196;-77
2022/02/23 07:11:10;;;;;;;11.97;10.70;;;5.40;99.90;;;;;;5002804;28;20550;-77
2022/02/23 07:13:37;;;;;;;13.03;11.20;;;5.50;99.90;;;;;;4987600;28;20697;-80
2022/02/23 07:16:06;;;;;;;13.90;12.70;;;5.50;99.90;;;;;;5004978;28;20251;-79
2022/02/23 07:18:32;;;;;;;13.30;12.10;;;5.50;99.90;;;;;;4982730;28;20205;-78
2022/02/23 07:20:59;;;;;;;13.70;12.60;;;5.50;99.90;;;;;;4994566;28;20202;-78
2022/02/23 07:23:26;;;;;;;14.37;13.17;;;5.60;99.90;;;;;;4989226;28;20275;-79
2022/02/23 07:25:53;;;;;;;13.70;12.70;;;5.50;99.90;;;;;;4990399;28;20204;-78
2022/02/23 07:28:20;;;;;;;13.80;12.90;;;5.60;99.90;;;;;;4973604;28;20210;-78
2022/02/23 07:30:48;;;;;;;14.47;13.27;;;5.60;99.90;;;;;;4982521;28;20233;-77
2022/02/23 07:33:16;;;;;;;14.40;13.20;;;5.60;99.90;;;;;;4984141;28;20702;-76
2022/02/23 07:35:44;;;;;;;13.70;12.50;;;5.60;99.90;;;;;;5005149;28;20280;-77
2022/02/23 07:38:11;;;;;;;13.20;12.20;;;5.70;99.90;;;;;;5000413;28;20546;-76
2022/02/23 07:40:39;;;;;;;13.53;12.23;;;5.70;99.90;;;;;;5003832;28;20193;-76
2022/02/23 07:43:06;;;;;;;13.60;12.33;;;5.70;99.90;;;;;;4983458;28;20224;-76
2022/02/23 07:45:35;;;;;;;13.23;12.10;;;5.80;99.90;;;;;;4996527;28;20634;-76
2022/02/23 07:48:04;;;;;;;12.60;11.70;;;6.00;99.90;;;;;;5002614;28;20749;-76
2022/02/23 07:50:33;;;;;;;14.70;12.13;;;6.30;99.90;;;;;;4980067;28;20208;-75
2022/02/23 07:53:00;;;;;;;15.20;13.37;;;6.60;99.90;;;;;;4985724;28;20260;-76
2022/02/23 07:55:29;;;;;;;14.13;12.83;;;7.00;99.90;;;;;;4986047;28;20206;-76
2022/02/23 07:57:58;;;;;;;15.40;14.17;;;7.30;99.90;;;;;;5001576;28;20257;-77
2022/02/23 08:00:27;;;;;;;7.53;5.90;;;7.70;99.90;;;;;;5002995;28;20198;-77
2022/02/23 08:02:54;;;;;;;13.73;12.60;;;8.10;99.90;;;;;;5001409;28;20589;-78
2022/02/23 08:05:21;;;;;;;13.03;9.90;;;8.50;99.90;;;;;;4984459;28;20204;-76
2022/02/23 08:07:49;;;;;;;8.53;7.13;;;8.60;99.90;;;;;;4986162;28;20262;-77
2022/02/23 08:10:16;;;;;;;11.13;10.33;;;8.80;99.90;;;;;;5000796;28;20251;-76
2022/02/23 08:12:43;;;;;;;10.30;9.30;;;9.00;99.90;;;;;;5002748;28;20312;-76
2022/02/23 08:20:39;;;;;;;8.10;7.30;;;9.80;99.90;;;;;;4996881;28;20189;-76
2022/02/23 08:23:08;;;;;;;10.30;9.30;;;10.10;99.90;;;;;;5003104;28;20224;-78
2022/02/23 08:25:35;;;;;;;9.63;8.60;;;10.30;99.90;;;;;;4986457;28;20204;-77
2022/02/23 08:28:02;;;;;;;10.83;8.40;;;10.40;99.90;;;;;;4977730;28;20208;-77
2022/02/23 08:30:29;;;;;;;10.47;7.27;;;10.60;99.90;;;;;;4993700;28;20197;-79
2022/02/23 08:33:00;;;;;;;6.93;6.23;;;10.90;99.90;;;;;;4999597;28;20244;-77
2022/02/23 08:35:27;;;;;;;8.23;6.57;;;11.10;99.90;;;;;;4989592;28;20266;-77
2022/02/23 08:37:54;;;;;;;9.33;6.70;;;11.50;99.90;;;;;;4999154;28;20276;-76
2022/02/23 08:40:22;;;;;;;9.70;6.40;;;11.50;99.90;;;;;;5002564;28;20193;-77
2022/02/23 08:42:49;;;;;;;9.97;6.10;;;11.60;99.90;;;;;;4984956;28;20239;-77
2022/02/23 08:45:16;;;;;;;9.63;6.17;;;11.70;99.90;;;;;;4983992;28;20280;-78
2022/02/23 08:47:43;;;;;;;7.67;5.50;;;11.80;99.90;;;;;;4998083;28;20221;-77
2022/02/23 08:50:10;;;;;;;8.70;7.80;;;11.80;99.90;;;;;;4983169;28;20218;-77
2022/02/23 08:52:37;;;;;;;8.60;6.30;;;11.90;99.90;;;;;;5006058;28;20252;-78
2022/02/23 08:55:07;;;;;;;6.70;5.07;;;12.00;99.90;;;;;;4996946;28;20630;-77
2022/02/23 08:57:35;;;;;;;7.13;4.77;;;12.00;99.90;;;;;;4997231;28;20200;-77
2022/02/23 09:00:02;;;;;;;11.10;5.47;;;12.00;99.90;;;;;;4999319;28;20204;-78
2022/02/23 09:02:29;;;;;;;11.70;6.40;;;12.20;99.90;;;;;;4988221;28;20227;-77
2022/02/23 09:04:56;;;;;;;11.47;6.50;;;12.20;99.90;;;;;;4996947;28;20205;-78
2022/02/23 09:07:23;;;;;;;8.70;5.80;;;12.40;99.90;;;;;;4984195;28;20217;-77
2022/02/23 09:09:49;;;;;;;9.70;5.90;;;12.70;99.90;;;;;;4999482;28;20619;-77
2022/02/23 09:12:16;;;;;;;10.70;5.67;;;12.70;99.90;;;;;;5001273;28;20229;-77
2022/02/23 09:14:44;;;;;;;9.60;8.00;;;12.80;99.90;;;;;;5002993;28;20606;-77
2022/02/23 09:17:11;;;;;;;9.90;6.60;;;12.90;99.90;;;;;;4995126;28;20663;-78
2022/02/23 09:19:38;;;;;;;10.70;5.97;;;12.80;99.90;;;;;;4991373;28;20221;-77
2022/02/23 09:22:05;;;;;;;10.50;7.83;;;13.10;99.90;;;;;;5002001;28;20705;-77
2022/02/23 09:24:32;;;;;;;10.97;7.30;;;13.30;99.90;;;;;;5001244;28;20579;-78
2022/02/23 09:27:01;;;;;;;11.10;7.93;;;13.20;99.90;;;;;;5002328;28;20216;-77
2022/02/23 09:29:28;;;;;;;12.43;8.20;;;13.50;99.90;;;;;;5004047;28;20688;-77
2022/02/23 09:31:56;;;;;;;8.27;5.70;;;13.60;99.90;;;;;;4997674;28;20230;-77
2022/02/23 09:34:24;;;;;;;6.93;6.10;;;13.40;99.90;;;;;;5006258;28;20228;-77
2022/02/23 09:36:51;;;;;;;8.40;4.60;;;13.60;99.90;;;;;;5005662;28;20283;-78
2022/02/23 09:39:18;;;;;;;6.97;5.23;;;13.90;99.90;;;;;;5004039;28;20230;-77
2022/02/23 09:41:46;;;;;;;6.00;4.00;;;13.90;99.90;;;;;;5002661;28;20210;-78
2022/02/23 09:44:17;;;;;;;5.93;4.20;;;13.90;99.90;;;;;;4985841;28;20584;-77
2022/02/23 09:46:45;;;;;;;7.47;5.20;;;13.70;99.90;;;;;;4984472;28;20715;-76
2022/02/23 09:49:14;;;;;;;8.23;4.93;;;13.50;99.90;;;;;;4989192;28;20201;-78
2022/02/23 09:51:41;;;;;;;8.53;5.27;;;13.40;99.90;;;;;;5002926;28;20697;-77
2022/02/23 09:54:08;;;;;;;8.83;5.80;;;13.40;99.90;;;;;;4998624;28;20268;-77
2022/02/23 09:56:34;;;;;;;6.90;5.23;;;13.50;99.90;;;;;;5001749;28;20206;-78
2022/02/23 09:59:02;;;;;;;10.23;5.93;;;13.50;99.90;;;;;;4984906;28;20197;-77
2022/02/23 10:01:30;;;;;;;11.70;8.33;;;13.60;99.90;;;;;;5003590;28;20220;-79
2022/02/23 10:03:56;;;;;;;10.57;9.57;;;13.40;99.90;;;;;;5002463;28;20231;-76
2022/02/23 10:06:30;;;;;;;10.73;9.90;;;13.20;99.90;;;;;;4984632;28;20201;-78
2022/02/23 10:09:03;;;;;;;11.47;10.17;;;12.80;99.90;;;;;;5009883;28;20200;-76
2022/02/23 10:11:30;;;;;;;10.70;9.70;;;12.70;99.90;;;;;;5013382;28;20216;-77
2022/02/23 10:13:58;;;;;;;10.70;9.70;;;12.60;99.90;;;;;;4995787;28;20232;-76
2022/02/23 10:16:31;;;;;;;10.10;9.10;;;12.40;99.90;;;;;;5012008;28;20213;-77
2022/02/23 10:19:09;;;;;;;9.60;8.67;;;12.50;99.90;;;;;;5012597;28;20212;-81
2022/02/23 10:21:50;;;;;;;10.53;8.83;;;12.40;99.90;;;;;;4992748;28;20639;-80
2022/02/23 10:24:22;;;;;;;8.90;8.17;;;12.20;99.90;;;;;;4996670;28;20196;-79
2022/02/23 10:26:58;;;;;;;9.77;8.30;;;12.10;99.90;;;;;;4976974;28;20219;-77
2022/02/23 10:29:29;;;;;;;10.00;9.03;;;12.10;99.90;;;;;;5004361;28;20237;-78
2022/02/23 10:31:56;;;;;;;8.80;8.00;;;12.00;99.90;;;;;;5007388;28;20227;-77
2022/02/23 10:34:25;;;;;;;8.87;8.07;;;11.90;99.90;;;;;;4984557;28;20228;-79
2022/02/23 10:37:00;;;;;;;10.63;8.50;;;11.90;99.90;;;;;;4983269;28;20686;-78
2022/02/23 10:39:39;;;;;;;8.77;8.07;;;11.90;99.90;;;;;;5004242;28;20283;-78
2022/02/23 10:42:08;;;;;;;9.00;8.30;;;11.70;99.90;;;;;;4986253;28;20249;-78
2022/02/23 10:44:35;;;;;;;9.27;8.40;;;11.70;99.90;;;;;;4982995;28;20300;-78
2022/02/23 10:47:02;;;;;;;8.90;8.10;;;11.60;99.90;;;;;;4998883;28;20193;-80
2022/02/23 10:49:29;;;;;;;9.23;8.50;;;11.70;99.90;;;;;;4993751;28;20192;-78
2022/02/23 10:52:06;;;;;;;9.07;8.10;;;11.60;99.90;;;;;;5001543;28;20271;-77
2022/02/23 10:54:34;;;;;;;9.50;8.70;;;11.50;99.90;;;;;;4977700;28;20211;-78
2022/02/23 10:57:16;;;;;;;10.13;8.90;;;11.50;99.90;;;;;;4986000;28;20739;-78
2022/02/23 10:59:43;;;;;;;10.97;9.93;;;11.50;99.90;;;;;;4982022;28;20570;-78
2022/02/23 11:02:11;;;;;;;8.90;8.07;;;11.30;99.90;;;;;;4994978;28;20222;-77
2022/02/23 11:04:38;;;;;;;8.53;7.93;;;11.40;99.90;;;;;;4987788;28;20195;-79
2022/02/23 11:07:07;;;;;;;9.50;8.70;;;11.50;99.90;;;;;;5008708;28;20198;-78
2022/02/23 11:09:34;;;;;;;8.80;8.17;;;11.70;99.90;;;;;;4982701;28;20247;-78
2022/02/23 11:12:03;;;;;;;8.80;8.10;;;11.60;99.90;;;;;;5006898;23;20238;-77
2022/02/23 11:14:30;;;;;;;8.63;7.97;;;11.50;99.90;;;;;;5002734;28;20212;-77
2022/02/23 11:17:00;;;;;;;8.43;7.63;;;11.60;99.90;;;;;;4994262;28;20236;-76
2022/02/23 11:19:30;;;;;;;8.70;7.90;;;11.70;99.90;;;;;;5010771;28;20226;-76
2022/02/23 11:22:01;;;;;;;8.73;8.00;;;11.60;99.90;;;;;;5012174;28;20265;-77
2022/02/23 11:24:30;;;;;;;9.03;8.30;;;11.50;99.90;;;;;;4999989;28;20223;-77
2022/02/23 11:27:01;;;;;;;9.63;8.80;;;11.40;99.90;;;;;;5004406;28;20203;-77
2022/02/23 11:29:36;;;;;;;9.93;9.10;;;11.30;99.90;;;;;;5000587;28;20192;-76
2022/02/23 11:32:07;;;;;;;9.63;8.77;;;11.20;99.90;;;;;;5008813;28;20225;-76
2022/02/23 11:34:37;;;;;;;8.80;8.10;;;11.20;99.90;;;;;;5004987;28;20219;-76
2022/02/23 11:37:10;;;;;;;9.83;9.10;;;11.20;99.90;;;;;;5003301;28;20193;-76
2022/02/23 11:39:38;;;;;;;9.40;8.50;;;11.10;99.90;;;;;;5009856;28;20205;-76
2022/02/23 11:42:10;;;;;;;8.80;8.20;;;11.20;99.90;;;;;;5004015;28;20213;-76
2022/02/23 11:44:40;;;;;;;9.33;8.53;;;11.20;99.90;;;;;;4985840;28;20197;-76
2022/02/23 11:47:13;;;;;;;9.13;8.33;;;11.40;99.90;;;;;;5003059;28;20202;-76
2022/02/23 11:49:50;;;;;;;9.03;8.33;;;11.50;99.90;;;;;;5006727;28;20203;-76
2022/02/23 11:52:19;;;;;;;8.50;7.80;;;11.70;99.90;;;;;;5002516;28;20238;-77
2022/02/23 11:55:01;;;;;;;8.27;7.73;;;11.80;99.90;;;;;;4988611;28;20224;-76
2022/02/23 11:57:44;;;;;;;8.30;7.50;;;11.90;99.90;;;;;;4999901;28;20226;-76
2022/02/23 12:00:13;;;;;;;8.30;7.70;;;11.90;99.90;;;;;;4990768;28;20217;-76
2022/02/23 12:02:41;;;;;;;7.47;6.90;;;11.90;99.90;;;;;;5005715;28;20307;-76
2022/02/23 12:05:09;;;;;;;6.90;6.30;;;11.90;99.90;;;;;;4986377;28;20198;-76
2022/02/23 12:07:47;;;;;;;6.70;6.30;;;11.70;99.90;;;;;;4985699;28;20572;-76
2022/02/23 12:10:16;;;;;;;5.57;5.17;;;11.70;99.90;;;;;;5003958;28;20222;-77
2022/02/23 12:12:45;;;;;;;7.50;6.43;;;11.70;99.90;;;;;;5003558;28;20229;-77
2022/02/23 12:15:13;;;;;;;6.77;6.17;;;11.60;99.90;;;;;;5003511;28;20275;-76
2022/02/23 12:17:54;;;;;;;8.53;6.37;;;11.60;99.90;;;;;;4988378;28;20235;-76
2022/02/23 12:20:49;;;;;;;5.77;5.27;;;11.70;99.90;;;;;;4996265;28;20201;-77
2022/02/23 12:23:39;;;;;;;6.60;5.93;;;11.90;99.90;;;;;;5002428;28;20234;-76
2022/02/23 12:26:20;;;;;;;6.57;6.00;;;12.10;99.90;;;;;;5004286;28;20724;-77
2022/02/23 12:28:49;;;;;;;7.27;3.73;;;12.30;99.90;;;;;;5005751;28;20218;-76
2022/02/23 12:31:19;;;;;;;4.83;2.93;;;12.30;99.90;;;;;;5004942;28;20214;-77
2022/02/23 12:33:48;;;;;;;4.00;2.50;;;12.40;99.90;;;;;;5011867;28;20254;-77
2022/02/23 12:36:23;;;;;;;3.60;2.77;;;12.60;99.90;;;;;;5003674;28;20636;-77
2022/02/23 12:38:50;;;;;;;2.60;2.40;;;12.70;99.90;;;;;;5003872;28;20222;-76
2022/02/23 12:41:21;;;;;;;5.70;5.20;;;12.80;99.90;;;;;;5003554;28;20208;-76
2022/02/23 12:44:00;;;;;;;5.77;5.33;;;12.80;99.90;;;;;;4986621;28;20233;-78
2022/02/23 12:46:28;;;;;;;5.43;4.97;;;12.70;99.90;;;;;;5011309;28;20199;-79
2022/02/23 12:48:56;;;;;;;4.77;4.27;;;12.70;99.90;;;;;;5002691;28;20210;-78
2022/02/23 12:51:24;;;;;;;4.23;3.87;;;12.80;99.90;;;;;;5014605;28;20233;-79
2022/02/23 12:53:53;;;;;;;4.30;4.00;;;12.80;99.90;;;;;;5005533;28;20306;-79
2022/02/23 12:56:23;;;;;;;5.20;4.90;;;13.00;99.90;;;;;;5010756;28;20197;-78